createdAt,value
2019-04-16T00:02:11.057Z,6.48
2019-04-16T00:04:59.980Z,6.43
2019-04-16T00:07:55.823Z,6.37
2019-04-16T00:10:38.541Z,6.34
2019-04-16T00:13:21.218Z,6.28
2019-04-16T00:15:52.633Z,6.24
2019-04-16T00:18:22.977Z,6.17
2019-04-16T00:21:10.879Z,6.15
2019-04-16T00:23:59.779Z,6.11
2019-04-16T00:26:29.933Z,6.07
2019-04-16T00:29:02.274Z,6.02
2019-04-16T00:31:34.332Z,5.97
2019-04-16T00:34:04.274Z,5.94
2019-04-16T00:36:34.039Z,5.90
2019-04-16T00:39:05.309Z,5.87
2019-04-16T00:41:35.835Z,5.84
2019-04-16T00:44:05.766Z,5.81
2019-04-16T00:46:35.962Z,5.77
2019-04-16T00:49:06.113Z,5.74
2019-04-16T00:51:36.005Z,5.72
2019-04-16T00:54:09.865Z,5.67
2019-04-16T00:56:37.607Z,5.66
2019-04-16T00:59:07.832Z,5.61
2019-04-16T01:01:37.670Z,5.54
2019-04-16T01:04:07.566Z,5.50
2019-04-16T01:06:37.905Z,5.51
2019-04-16T01:09:09.263Z,5.47
2019-04-16T01:11:39.220Z,5.43
2019-04-16T01:14:09.261Z,5.42
2019-04-16T01:16:39.226Z,5.38
2019-04-16T01:19:10.155Z,5.33
2019-04-16T01:21:44.625Z,5.31
2019-04-16T01:24:12.269Z,5.29
2019-04-16T01:26:42.079Z,5.22
2019-04-16T01:29:13.503Z,5.22
2019-04-16T01:31:52.012Z,5.19
2019-04-16T01:34:43.317Z,5.18
2019-04-16T01:37:25.444Z,5.16
2019-04-16T01:39:53.492Z,5.10
2019-04-16T01:42:24.267Z,5.04
2019-04-16T01:44:53.973Z,4.99
2019-04-16T01:47:23.828Z,4.94
2019-04-16T01:49:54.311Z,4.94
2019-04-16T01:52:24.300Z,4.92
2019-04-16T01:54:57.853Z,4.85
2019-04-16T01:57:28.391Z,4.80
2019-04-16T01:59:58.187Z,4.78
2019-04-16T02:02:28.096Z,4.67
2019-04-16T02:04:59.293Z,4.67
2019-04-16T02:07:29.061Z,4.64
2019-04-16T02:09:59.131Z,4.64
2019-04-16T02:12:29.072Z,4.60
2019-04-16T02:14:58.955Z,4.58
2019-04-16T02:17:28.825Z,4.55
2019-04-16T02:19:58.782Z,4.52
2019-04-16T02:22:30.556Z,4.43
2019-04-16T02:25:00.525Z,4.35
2019-04-16T02:27:30.401Z,4.35
2019-04-16T02:30:02.660Z,4.34
2019-04-16T02:32:33.332Z,4.34
2019-04-16T02:35:03.542Z,4.32
2019-04-16T02:37:36.326Z,4.29
2019-04-16T02:40:05.748Z,4.25
2019-04-16T02:42:36.694Z,4.22
2019-04-16T02:45:07.041Z,4.17
2019-04-16T02:47:41.785Z,4.07
2019-04-16T02:50:12.059Z,4.07
2019-04-16T02:52:52.358Z,4.03
2019-04-16T02:55:44.169Z,4.00
2019-04-16T02:58:17.594Z,3.99
2019-04-16T03:01:25.030Z,3.95
2019-04-16T03:03:59.858Z,3.92
2019-04-16T03:06:32.021Z,3.88
2019-04-16T03:09:01.803Z,3.74
2019-04-16T03:11:33.194Z,3.84
2019-04-16T03:14:03.286Z,3.82
2019-04-16T03:16:58.609Z,3.78
2019-04-16T03:19:32.654Z,3.76
2019-04-16T03:22:03.309Z,3.72
2019-04-16T03:24:33.642Z,3.69
2019-04-16T03:27:05.219Z,3.66
2019-04-16T03:29:35.696Z,3.63
2019-04-16T03:32:06.179Z,3.61
2019-04-16T03:34:36.702Z,3.57
2019-04-16T03:37:06.617Z,3.57
2019-04-16T03:39:36.495Z,3.52
2019-04-16T03:42:06.317Z,3.49
2019-04-16T03:44:37.307Z,3.47
2019-04-16T03:47:07.365Z,3.44
2019-04-16T03:49:37.221Z,3.42
2019-04-16T03:52:08.766Z,3.40
2019-04-16T03:54:38.709Z,3.35
2019-04-16T03:57:08.848Z,3.32
2019-04-16T03:59:40.046Z,3.31
2019-04-16T04:02:10.659Z,3.30
2019-04-16T04:04:40.421Z,3.26
2019-04-16T04:07:12.327Z,3.26
2019-04-16T04:09:43.394Z,3.23
2019-04-16T04:12:14.320Z,3.20
2019-04-16T04:14:44.661Z,3.17
2019-04-16T04:17:14.463Z,3.14
2019-04-16T04:19:46.242Z,3.10
2019-04-16T04:22:16.425Z,3.04
2019-04-16T04:24:46.668Z,3.03
2019-04-16T04:27:19.205Z,3.02
2019-04-16T04:29:48.572Z,2.99
2019-04-16T04:32:18.585Z,2.98
2019-04-16T04:34:49.584Z,2.96
2019-04-16T04:37:19.847Z,2.95
2019-04-16T04:39:50.099Z,2.95
2019-04-16T04:42:19.980Z,2.98
2019-04-16T04:44:49.910Z,2.96
2019-04-16T04:47:20.237Z,2.95
2019-04-16T04:49:50.449Z,2.94
2019-04-16T04:52:20.729Z,2.95
2019-04-16T04:54:51.375Z,2.94
2019-04-16T04:57:22.509Z,2.91
2019-04-16T04:59:53.387Z,2.91
2019-04-16T05:02:24.473Z,2.91
2019-04-16T05:04:59.889Z,2.92
2019-04-16T05:07:31.153Z,2.94
2019-04-16T05:10:01.054Z,2.95
2019-04-16T05:12:30.990Z,2.96
2019-04-16T05:15:03.754Z,2.98
2019-04-16T05:17:32.393Z,2.99
2019-04-16T05:20:02.311Z,3.02
2019-04-16T05:22:33.101Z,3.05
2019-04-16T05:25:03.730Z,3.12
2019-04-16T05:27:40.279Z,3.17
2019-04-16T05:30:07.145Z,3.21
2019-04-16T05:32:37.107Z,3.31
2019-04-16T05:35:10.156Z,3.63
2019-04-16T05:37:38.930Z,4.46
2019-04-16T05:40:10.079Z,5.45
2019-04-16T05:42:40.242Z,6.40
2019-04-16T05:45:10.186Z,6.99
2019-04-16T05:47:40.051Z,7.15
2019-04-16T05:50:10.562Z,7.43
2019-04-16T05:52:41.747Z,7.75
2019-04-16T05:55:30.705Z,7.76
2019-04-16T05:58:00.599Z,7.52
2019-04-16T06:00:38.319Z,7.26
2019-04-16T06:03:07.445Z,7.17
2019-04-16T06:05:37.559Z,6.56
2019-04-16T06:08:11.529Z,6.04
2019-04-16T06:10:41.623Z,5.79
2019-04-16T06:13:29.277Z,5.68
2019-04-16T06:16:14.568Z,5.54
2019-04-16T06:19:04.186Z,5.48
2019-04-16T06:21:56.454Z,5.50
2019-04-16T06:25:08.496Z,5.56
2019-04-16T06:27:51.254Z,5.65
2019-04-16T06:30:32.737Z,5.91
2019-04-16T06:33:04.539Z,5.84
2019-04-16T06:35:59.195Z,5.92
2019-04-16T06:38:32.767Z,6.05
2019-04-16T06:41:12.165Z,6.27
2019-04-16T06:43:44.870Z,6.28
2019-04-16T06:46:23.029Z,6.10
2019-04-16T06:49:17.751Z,6.02
2019-04-16T06:52:16.022Z,5.94
2019-04-16T06:55:03.673Z,5.93
2019-04-16T06:58:03.353Z,5.84
2019-04-16T07:00:52.060Z,5.82
2019-04-16T07:03:47.123Z,6.01
2019-04-16T07:06:36.302Z,5.96
2019-04-16T07:09:41.101Z,5.98
2019-04-16T07:12:07.860Z,6.17
2019-04-16T07:14:38.333Z,6.22
2019-04-16T07:17:08.366Z,6.33
2019-04-16T07:19:39.447Z,6.29
2019-04-16T07:22:10.143Z,6.25
2019-04-16T07:24:40.359Z,6.15
2019-04-16T07:27:10.282Z,6.12
2019-04-16T07:29:50.133Z,6.22
2019-04-16T07:32:30.411Z,6.38
2019-04-16T07:35:07.983Z,6.38
2019-04-16T07:37:56.715Z,6.48
2019-04-16T07:40:51.357Z,6.58
2019-04-16T07:43:39.222Z,6.73
2019-04-16T07:46:37.455Z,6.90
2019-04-16T07:49:32.646Z,6.89
2019-04-16T07:52:17.851Z,6.99
2019-04-16T07:55:05.328Z,7.00
2019-04-16T07:57:35.212Z,7.10
2019-04-16T08:00:09.503Z,7.16
2019-04-16T08:02:37.967Z,7.32
2019-04-16T08:05:09.584Z,7.54
2019-04-16T08:07:39.634Z,7.79
2019-04-16T08:10:09.736Z,7.94
2019-04-16T08:12:42.213Z,8.05
2019-04-16T08:15:15.219Z,8.04
2019-04-16T08:17:44.126Z,8.12
2019-04-16T08:20:14.433Z,8.15
2019-04-16T08:22:47.193Z,8.29
2019-04-16T08:25:19.219Z,8.41
2019-04-16T08:27:50.743Z,8.46
2019-04-16T08:30:20.799Z,8.46
2019-04-16T08:32:50.739Z,8.55
2019-04-16T08:35:20.685Z,8.65
2019-04-16T08:37:50.623Z,8.66
2019-04-16T08:40:20.583Z,8.78
2019-04-16T08:42:50.589Z,8.93
2019-04-16T08:45:20.967Z,9.08
2019-04-16T08:47:50.824Z,9.30
2019-04-16T08:50:25.809Z,9.38
2019-04-16T08:52:52.826Z,9.40
2019-04-16T08:55:23.690Z,9.51
2019-04-16T08:57:55.186Z,9.61
2019-04-16T09:00:26.195Z,9.74
2019-04-16T09:02:58.717Z,9.86
2019-04-16T09:05:27.723Z,10.02
2019-04-16T09:08:12.610Z,10.05
2019-04-16T09:10:35.449Z,10.08
2019-04-16T09:13:07.332Z,10.16
2019-04-16T09:15:38.025Z,10.17
2019-04-16T09:18:17.700Z,10.37
2019-04-16T09:20:47.634Z,10.46
2019-04-16T09:23:17.569Z,10.54
2019-04-16T09:26:23.537Z,10.61
2019-04-16T09:29:08.131Z,10.67
2019-04-16T09:31:55.326Z,10.80
2019-04-16T09:34:43.106Z,10.93
2019-04-16T09:37:28.714Z,11.10
2019-04-16T09:40:18.527Z,11.26
2019-04-16T09:42:48.928Z,11.47
2019-04-16T09:45:19.603Z,11.53
2019-04-16T09:47:49.619Z,11.54
2019-04-16T09:50:19.381Z,11.58
2019-04-16T09:52:49.270Z,11.64
2019-04-16T09:55:19.660Z,11.70
2019-04-16T09:57:49.777Z,11.75
2019-04-16T10:00:24.369Z,11.75
2019-04-16T10:02:55.143Z,11.87
2019-04-16T10:05:26.504Z,11.91
2019-04-16T10:07:57.193Z,11.95
2019-04-16T10:10:27.947Z,12.04
2019-04-16T10:12:59.445Z,12.12
2019-04-16T10:15:29.497Z,12.29
2019-04-16T10:18:01.503Z,12.32
2019-04-16T10:20:31.132Z,12.45
2019-04-16T10:23:03.120Z,12.47
2019-04-16T10:25:33.766Z,12.51
2019-04-16T10:28:12.428Z,12.67
2019-04-16T10:30:46.885Z,12.71
2019-04-16T10:33:15.918Z,12.81
2019-04-16T10:35:45.887Z,12.92
2019-04-16T10:38:28.223Z,12.99
2019-04-16T10:41:07.775Z,13.11
2019-04-16T10:43:45.714Z,13.14
2019-04-16T10:46:34.891Z,13.25
2019-04-16T10:49:10.190Z,13.16
2019-04-16T10:51:50.524Z,13.15
2019-04-16T10:54:57.723Z,13.16
2019-04-16T10:57:38.495Z,13.28
2019-04-16T11:00:50.293Z,13.39
2019-04-16T11:03:34.491Z,13.55
2019-04-16T11:06:14.092Z,13.55
2019-04-16T11:08:44.073Z,13.48
2019-04-16T11:11:13.903Z,13.57
2019-04-16T11:13:58.888Z,13.77
2019-04-16T11:16:18.846Z,13.90
2019-04-16T11:18:49.104Z,13.91
2019-04-16T11:21:19.174Z,13.91
2019-04-16T11:23:50.238Z,13.94
2019-04-16T11:26:20.345Z,13.92
2019-04-16T11:28:50.247Z,14.04
2019-04-16T11:31:21.453Z,14.17
2019-04-16T11:33:51.487Z,14.13
2019-04-16T11:36:21.715Z,14.22
2019-04-16T11:38:51.795Z,14.22
2019-04-16T11:41:21.704Z,14.24
2019-04-16T11:43:51.590Z,14.29
2019-04-16T11:46:21.968Z,14.37
2019-04-16T11:48:51.841Z,14.46
2019-04-16T11:51:21.927Z,14.45
2019-04-16T11:53:51.736Z,14.47
2019-04-16T11:56:22.657Z,14.51
2019-04-16T11:58:52.929Z,14.55
2019-04-16T12:02:00.229Z,14.65
2019-04-16T12:04:47.828Z,14.70
2019-04-16T12:07:21.662Z,14.80
2019-04-16T12:10:09.848Z,14.86
2019-04-16T12:13:07.717Z,14.96
2019-04-16T12:15:58.020Z,14.96
2019-04-16T12:18:32.316Z,15.05
2019-04-16T12:21:06.283Z,14.97
2019-04-16T12:24:01.284Z,14.88
2019-04-16T12:26:50.386Z,14.85
2019-04-16T12:29:30.645Z,14.85
2019-04-16T12:32:08.976Z,15.02
2019-04-16T12:35:01.638Z,15.16
2019-04-16T12:37:49.490Z,15.31
2019-04-16T12:40:28.066Z,15.49
2019-04-16T12:43:14.715Z,15.49
2019-04-16T12:45:53.417Z,15.48
2019-04-16T12:48:37.819Z,15.54
2019-04-16T12:51:41.819Z,15.54
2019-04-16T12:54:29.544Z,15.51
2019-04-16T12:57:16.694Z,15.45
2019-04-16T13:00:26.119Z,14.90
2019-04-16T13:03:10.630Z,15.41
2019-04-16T13:06:01.383Z,15.49
2019-04-16T13:08:53.674Z,15.48
2019-04-16T13:11:36.461Z,15.51
2019-04-16T13:14:24.283Z,15.53
2019-04-16T13:17:04.375Z,15.47
2019-04-16T13:19:53.347Z,15.55
2019-04-16T13:22:27.142Z,15.54
2019-04-16T13:25:05.915Z,15.60
2019-04-16T13:27:37.701Z,15.76
2019-04-16T13:30:09.089Z,15.75
2019-04-16T13:32:39.187Z,15.76
2019-04-16T13:35:09.363Z,15.83
2019-04-16T13:37:39.251Z,15.83
2019-04-16T13:40:15.668Z,15.88
2019-04-16T13:42:45.779Z,15.92
2019-04-16T13:45:25.947Z,15.96
2019-04-16T13:47:55.724Z,16.01
2019-04-16T13:50:40.459Z,15.93
2019-04-16T13:53:28.223Z,15.96
2019-04-16T13:56:17.443Z,16.04
2019-04-16T13:58:56.131Z,16.02
2019-04-16T14:01:29.683Z,15.94
2019-04-16T14:03:59.553Z,15.93
2019-04-16T14:06:29.547Z,15.96
2019-04-16T14:08:59.572Z,15.95
2019-04-16T14:11:29.710Z,15.94
2019-04-16T14:13:59.655Z,15.94
2019-04-16T14:16:29.590Z,15.97
2019-04-16T14:19:02.524Z,16.02
2019-04-16T14:21:32.490Z,15.97
2019-04-16T14:24:02.650Z,15.97
2019-04-16T14:26:32.814Z,16.02
2019-04-16T14:29:05.941Z,16.06
2019-04-16T14:31:34.544Z,16.06
2019-04-16T14:34:36.802Z,16.02
2019-04-16T14:37:11.398Z,16.10
2019-04-16T14:39:44.357Z,16.09
2019-04-16T14:42:15.178Z,16.10
2019-04-16T14:44:49.128Z,16.08
2019-04-16T14:47:19.010Z,16.08
2019-04-16T14:49:50.844Z,16.15
2019-04-16T14:52:20.508Z,16.17
2019-04-16T14:54:57.861Z,16.18
2019-04-16T14:57:27.882Z,16.23
2019-04-16T15:00:16.405Z,16.26
2019-04-16T15:02:51.537Z,16.27
2019-04-16T15:05:39.483Z,16.32
2019-04-16T15:08:31.337Z,16.31
2019-04-16T15:11:31.172Z,16.19
2019-04-16T15:14:08.698Z,16.13
2019-04-16T15:16:43.073Z,16.10
2019-04-16T15:19:29.825Z,16.12
2019-04-16T15:22:23.034Z,16.12
2019-04-16T15:25:07.531Z,16.13
2019-04-16T15:27:55.162Z,16.09
2019-04-16T15:30:43.568Z,16.06
2019-04-16T15:33:50.736Z,16.04
2019-04-16T15:36:30.988Z,16.09
2019-04-16T15:39:10.000Z,16.13
2019-04-16T15:41:46.739Z,16.14
2019-04-16T15:44:23.670Z,16.06
2019-04-16T15:47:14.292Z,16.00
2019-04-16T15:50:00.041Z,16.03
2019-04-16T15:53:07.741Z,15.99
2019-04-16T15:56:12.062Z,15.88
2019-04-16T15:58:49.580Z,15.86
2019-04-16T16:01:50.579Z,15.88
2019-04-16T16:04:35.779Z,15.86
2019-04-16T16:07:11.921Z,15.82
2019-04-16T16:09:59.681Z,15.84
2019-04-16T16:12:31.544Z,15.80
2019-04-16T16:15:02.157Z,15.77
2019-04-16T16:17:33.600Z,15.75
2019-04-16T16:20:03.735Z,15.75
2019-04-16T16:22:33.545Z,15.73
2019-04-16T16:25:05.867Z,15.69
2019-04-16T16:27:35.058Z,15.62
2019-04-16T16:30:06.143Z,15.58
2019-04-16T16:32:36.040Z,15.53
2019-04-16T16:35:06.581Z,15.49
2019-04-16T16:37:37.522Z,15.45
2019-04-16T16:40:07.887Z,15.43
2019-04-16T16:42:38.080Z,15.42
2019-04-16T16:45:09.225Z,15.38
2019-04-16T16:47:40.565Z,15.34
2019-04-16T16:50:14.158Z,15.30
2019-04-16T16:53:01.140Z,15.29
2019-04-16T16:55:49.420Z,15.25
2019-04-16T16:58:41.519Z,15.20
2019-04-16T17:01:27.244Z,15.16
2019-04-16T17:04:07.155Z,15.13
2019-04-16T17:06:37.232Z,15.11
2019-04-16T17:09:09.011Z,15.07
2019-04-16T17:11:40.186Z,15.04
2019-04-16T17:14:10.721Z,14.99
2019-04-16T17:16:40.535Z,14.94
2019-04-16T17:19:10.323Z,14.91
2019-04-16T17:21:40.239Z,14.87
2019-04-16T17:24:13.282Z,14.84
2019-04-16T17:26:46.943Z,14.80
2019-04-16T17:29:16.923Z,14.77
2019-04-16T17:31:48.130Z,14.77
2019-04-16T17:34:18.333Z,14.72
2019-04-16T17:36:48.221Z,14.66
2019-04-16T17:39:33.024Z,14.61
2019-04-16T17:42:05.697Z,14.56
2019-04-16T17:44:55.085Z,14.47
2019-04-16T17:47:50.051Z,14.43
2019-04-16T17:50:30.478Z,14.39
2019-04-16T17:53:10.145Z,14.35
2019-04-16T17:55:58.046Z,14.29
2019-04-16T17:58:36.465Z,14.25
2019-04-16T18:01:24.397Z,14.17
2019-04-16T18:04:15.302Z,14.13
2019-04-16T18:06:59.994Z,14.05
2019-04-16T18:09:36.246Z,14.01
2019-04-16T18:12:35.071Z,13.96
2019-04-16T18:15:24.798Z,13.89
2019-04-16T18:18:02.490Z,13.83
2019-04-16T18:21:00.497Z,13.76
2019-04-16T18:23:48.630Z,13.70
2019-04-16T18:26:47.034Z,13.64
2019-04-16T18:29:21.551Z,13.62
2019-04-16T18:32:07.039Z,13.58
2019-04-16T18:34:55.507Z,13.49
2019-04-16T18:37:30.728Z,13.48
2019-04-16T18:40:22.498Z,13.43
2019-04-16T18:43:25.192Z,13.37
2019-04-16T18:46:15.299Z,13.31
2019-04-16T18:48:46.125Z,13.27
2019-04-16T18:51:15.915Z,13.21
2019-04-16T18:53:45.711Z,13.17
2019-04-16T18:56:15.687Z,13.14
2019-04-16T18:58:45.746Z,13.13
2019-04-16T19:01:24.610Z,13.07
2019-04-16T19:03:52.879Z,13.04
2019-04-16T19:06:22.816Z,12.99
2019-04-16T19:08:52.901Z,12.99
2019-04-16T19:11:22.880Z,12.93
2019-04-16T19:13:53.602Z,12.90
2019-04-16T19:16:23.522Z,12.83
2019-04-16T19:18:53.663Z,12.83
2019-04-16T19:21:23.764Z,12.78
2019-04-16T19:23:53.525Z,12.77
2019-04-16T19:26:23.519Z,12.74
2019-04-16T19:28:53.577Z,12.68
2019-04-16T19:31:25.060Z,12.62
2019-04-16T19:33:54.885Z,12.57
2019-04-16T19:36:27.564Z,12.52
2019-04-16T19:38:56.673Z,12.50
2019-04-16T19:41:26.793Z,12.47
2019-04-16T19:43:56.587Z,12.41
2019-04-16T19:46:26.473Z,12.37
2019-04-16T19:48:56.669Z,12.33
2019-04-16T19:51:27.778Z,12.29
2019-04-16T19:53:58.656Z,12.23
2019-04-16T19:56:28.657Z,12.19
2019-04-16T19:58:58.520Z,12.15
2019-04-16T20:01:28.369Z,12.09
2019-04-16T20:03:58.322Z,12.03
2019-04-16T20:06:28.265Z,12.00
2019-04-16T20:08:58.422Z,11.94
2019-04-16T20:11:28.431Z,11.89
2019-04-16T20:14:01.107Z,11.84
2019-04-16T20:16:30.247Z,11.79
2019-04-16T20:19:00.332Z,11.75
2019-04-16T20:21:30.349Z,11.72
2019-04-16T20:24:00.403Z,11.68
2019-04-16T20:26:32.654Z,11.66
2019-04-16T20:29:02.248Z,11.64
2019-04-16T20:31:33.283Z,11.58
2019-04-16T20:34:03.197Z,11.54
2019-04-16T20:36:33.110Z,11.50
2019-04-16T20:39:02.964Z,11.47
2019-04-16T20:41:34.474Z,11.41
2019-04-16T20:44:08.449Z,11.40
2019-04-16T20:46:36.121Z,11.38
2019-04-16T20:49:09.898Z,11.34
2019-04-16T20:51:37.691Z,11.33
2019-04-16T20:54:12.232Z,11.30
2019-04-16T20:56:40.644Z,11.29
2019-04-16T20:59:13.518Z,11.26
2019-04-16T21:01:43.543Z,11.26
2019-04-16T21:04:13.473Z,11.25
2019-04-16T21:06:43.444Z,11.21
2019-04-16T21:09:13.419Z,11.16
2019-04-16T21:11:43.276Z,11.13
2019-04-16T21:14:13.263Z,11.11
2019-04-16T21:16:43.200Z,11.08
2019-04-16T21:19:22.927Z,11.05
2019-04-16T21:21:44.982Z,11.02
2019-04-16T21:24:14.929Z,10.98
2019-04-16T21:26:45.226Z,10.96
2019-04-16T21:29:34.849Z,10.93
2019-04-16T21:32:09.868Z,10.85
2019-04-16T21:34:50.419Z,10.84
2019-04-16T21:37:38.369Z,10.84
2019-04-16T21:40:08.499Z,10.81
2019-04-16T21:42:38.866Z,10.77
2019-04-16T21:45:09.560Z,10.74
2019-04-16T21:47:39.440Z,10.75
2019-04-16T21:50:09.478Z,10.75
2019-04-16T21:52:39.319Z,10.73
2019-04-16T21:55:09.987Z,10.72
2019-04-16T21:57:42.853Z,10.71
2019-04-16T22:00:33.231Z,10.69
2019-04-16T22:03:09.166Z,10.67
2019-04-16T22:05:37.842Z,10.66
2019-04-16T22:08:07.831Z,10.63
2019-04-16T22:10:39.231Z,10.60
2019-04-16T22:13:09.322Z,10.57
2019-04-16T22:15:39.212Z,10.53
2019-04-16T22:18:10.057Z,10.50
2019-04-16T22:20:42.345Z,10.48
2019-04-16T22:23:11.907Z,10.44
2019-04-16T22:25:41.991Z,10.42
2019-04-16T22:28:12.985Z,10.39
2019-04-16T22:30:43.003Z,10.35
2019-04-16T22:33:12.919Z,10.35
2019-04-16T22:35:42.876Z,10.33
2019-04-16T22:38:14.510Z,10.35
2019-04-16T22:40:54.981Z,10.26
2019-04-16T22:43:43.543Z,10.31
2019-04-16T22:46:32.384Z,10.28
2019-04-16T22:49:02.583Z,10.27
2019-04-16T22:51:32.705Z,10.27
2019-04-16T22:54:02.821Z,10.25
2019-04-16T22:56:46.171Z,10.26
2019-04-16T22:59:15.964Z,10.28
2019-04-16T23:01:45.857Z,10.30
2019-04-16T23:04:15.802Z,10.27
2019-04-16T23:06:45.590Z,10.26
2019-04-16T23:09:17.009Z,10.25
2019-04-16T23:11:46.998Z,10.23
2019-04-16T23:14:17.738Z,10.21
2019-04-16T23:16:47.637Z,10.18
2019-04-16T23:19:20.192Z,10.13
2019-04-16T23:21:49.305Z,10.11
2019-04-16T23:24:22.842Z,10.07
2019-04-16T23:26:51.012Z,10.01
2019-04-16T23:29:20.994Z,10.00
2019-04-16T23:31:55.229Z,9.96
2019-04-16T23:34:22.480Z,9.92
2019-04-16T23:36:52.551Z,9.88
2019-04-16T23:39:22.605Z,9.82
2019-04-16T23:41:52.703Z,9.77
2019-04-16T23:44:41.734Z,9.74
2019-04-16T23:47:42.013Z,9.72
2019-04-16T23:50:26.125Z,9.70
2019-04-16T23:53:07.229Z,9.65
2019-04-16T23:55:49.005Z,9.65
2019-04-16T23:58:28.598Z,9.62
